sensor_id;sensor_type;location;lat;lon;timestamp;pressure;altitude;pressure_sealevel;temperature;humidity
50636;BME280;36598;46.054;11.130;2022-12-01T05:02:48;99478.28;;;3.47;78.32
50636;BME280;36598;46.054;11.130;2022-12-01T05:05:14;99477.69;;;3.57;78.20
50636;BME280;36598;46.054;11.130;2022-12-01T05:07:39;99482.66;;;3.51;78.41
50636;BME280;36598;46.054;11.130;2022-12-01T05:10:05;99476.22;;;3.63;78.18
50636;BME280;36598;46.054;11.130;2022-12-01T05:12:30;99481.34;;;3.45;78.59
50636;BME280;36598;46.054;11.130;2022-12-01T05:14:55;99475.03;;;3.61;77.82
50636;BME280;36598;46.054;11.130;2022-12-01T05:17:21;99484.03;;;3.61;78.15
50636;BME280;36598;46.054;11.130;2022-12-01T05:19:46;99481.63;;;3.60;77.36
50636;BME280;36598;46.054;11.130;2022-12-01T05:22:30;99472.38;;;3.64;77.51
50636;BME280;36598;46.054;11.130;2022-12-01T05:24:55;99485.91;;;3.57;77.66
50636;BME280;36598;46.054;11.130;2022-12-01T05:27:21;99471.78;;;3.55;77.70
50636;BME280;36598;46.054;11.130;2022-12-01T05:29:46;99486.75;;;3.61;77.24
50636;BME280;36598;46.054;11.130;2022-12-01T05:32:11;99486.47;;;3.47;77.89
50636;BME280;36598;46.054;11.130;2022-12-01T05:34:37;99488.50;;;3.31;78.37
50636;BME280;36598;46.054;11.130;2022-12-01T05:37:02;99488.94;;;3.52;77.59
50636;BME280;36598;46.054;11.130;2022-12-01T05:39:28;99484.72;;;3.58;77.18
50636;BME280;36598;46.054;11.130;2022-12-01T05:41:53;99481.91;;;3.55;77.16
50636;BME280;36598;46.054;11.130;2022-12-01T05:44:18;99486.53;;;3.31;78.41
50636;BME280;36598;46.054;11.130;2022-12-01T05:46:44;99492.28;;;3.26;79.02
50636;BME280;36598;46.054;11.130;2022-12-01T05:49:09;99487.63;;;3.26;78.85
50636;BME280;36598;46.054;11.130;2022-12-01T05:51:35;99486.88;;;3.30;79.17
50636;BME280;36598;46.054;11.130;2022-12-01T05:54:00;99489.06;;;3.40;78.57
50636;BME280;36598;46.054;11.130;2022-12-01T05:56:26;99487.41;;;3.35;79.13
50636;BME280;36598;46.054;11.130;2022-12-01T05:58:51;99484.59;;;3.32;78.91
50636;BME280;36598;46.054;11.130;2022-12-01T06:01:17;99486.25;;;3.36;78.88
50636;BME280;36598;46.054;11.130;2022-12-01T06:03:42;99485.53;;;3.39;78.78
50636;BME280;36598;46.054;11.130;2022-12-01T06:06:08;99488.44;;;3.11;80.26
50636;BME280;36598;46.054;11.130;2022-12-01T06:08:33;99491.31;;;3.34;79.14
50636;BME280;36598;46.054;11.130;2022-12-01T06:10:59;99493.44;;;3.44;78.78
50636;BME280;36598;46.054;11.130;2022-12-01T06:13:24;99492.78;;;3.51;78.46
50636;BME280;36598;46.054;11.130;2022-12-01T06:15:59;99500.72;;;3.56;77.83
50636;BME280;36598;46.054;11.130;2022-12-01T06:18:26;99489.56;;;3.26;79.24
50636;BME280;36598;46.054;11.130;2022-12-01T06:20:51;99494.88;;;3.19;79.74
50636;BME280;36598;46.054;11.130;2022-12-01T06:23:17;99491.00;;;3.39;79.20
50636;BME280;36598;46.054;11.130;2022-12-01T06:25:42;99492.97;;;3.39;78.76
50636;BME280;36598;46.054;11.130;2022-12-01T06:28:08;99494.59;;;3.43;78.38
50636;BME280;36598;46.054;11.130;2022-12-01T06:30:33;99503.59;;;3.44;78.07
50636;BME280;36598;46.054;11.130;2022-12-01T06:32:58;99507.53;;;3.46;78.27
50636;BME280;36598;46.054;11.130;2022-12-01T06:35:24;99504.44;;;3.29;78.69
50636;BME280;36598;46.054;11.130;2022-12-01T06:37:51;99508.28;;;3.43;78.07
50636;BME280;36598;46.054;11.130;2022-12-01T06:40:16;99501.00;;;3.32;78.69
50636;BME280;36598;46.054;11.130;2022-12-01T06:42:42;99502.03;;;3.43;77.95
50636;BME280;36598;46.054;11.130;2022-12-01T06:45:08;99505.31;;;3.13;78.59
50636;BME280;36598;46.054;11.130;2022-12-01T06:47:34;99512.16;;;3.23;79.16
50636;BME280;36598;46.054;11.130;2022-12-01T06:50:00;99519.19;;;3.24;78.77
50636;BME280;36598;46.054;11.130;2022-12-01T06:52:25;99520.19;;;2.81;80.89
50636;BME280;36598;46.054;11.130;2022-12-01T06:54:51;99518.41;;;3.23;78.77
50636;BME280;36598;46.054;11.130;2022-12-01T06:57:16;99517.13;;;3.17;79.25
50636;BME280;36598;46.054;11.130;2022-12-01T06:59:41;99527.56;;;3.50;77.59
50636;BME280;36598;46.054;11.130;2022-12-01T07:02:09;99530.31;;;3.50;77.27
50636;BME280;36598;46.054;11.130;2022-12-01T07:04:37;99530.63;;;3.30;78.34
50636;BME280;36598;46.054;11.130;2022-12-01T07:07:06;99533.44;;;3.14;78.74
50636;BME280;36598;46.054;11.130;2022-12-01T07:09:31;99533.16;;;3.38;78.22
50636;BME280;36598;46.054;11.130;2022-12-01T07:11:56;99534.81;;;3.23;78.64
50636;BME280;36598;46.054;11.130;2022-12-01T07:14:23;99538.50;;;3.31;79.20
50636;BME280;36598;46.054;11.130;2022-12-01T07:16:48;99543.63;;;3.71;77.13
50636;BME280;36598;46.054;11.130;2022-12-01T07:19:14;99545.94;;;3.50;77.96
50636;BME280;36598;46.054;11.130;2022-12-01T07:21:39;99548.19;;;4.03;75.98
50636;BME280;36598;46.054;11.130;2022-12-01T07:24:05;99548.78;;;4.15;74.94
50636;BME280;36598;46.054;11.130;2022-12-01T07:26:30;99550.84;;;3.60;77.16
50636;BME280;36598;46.054;11.130;2022-12-01T07:28:56;99558.41;;;3.86;75.61
50636;BME280;36598;46.054;11.130;2022-12-01T07:31:21;99556.38;;;4.03;75.58
50636;BME280;36598;46.054;11.130;2022-12-01T07:33:47;99556.38;;;3.44;76.81
50636;BME280;36598;46.054;11.130;2022-12-01T07:36:13;99559.91;;;3.84;75.74
50636;BME280;36598;46.054;11.130;2022-12-01T07:38:39;99556.91;;;4.31;74.19
50636;BME280;36598;46.054;11.130;2022-12-01T07:41:05;99567.97;;;3.96;75.51
50636;BME280;36598;46.054;11.130;2022-12-01T07:43:31;99560.31;;;4.24;74.47
50636;BME280;36598;46.054;11.130;2022-12-01T07:46:09;99562.09;;;4.59;73.20
50636;BME280;36598;46.054;11.130;2022-12-01T07:48:35;99558.25;;;4.41;73.30
50636;BME280;36598;46.054;11.130;2022-12-01T07:51:01;99566.81;;;4.16;73.49
50636;BME280;36598;46.054;11.130;2022-12-01T07:53:27;99571.00;;;3.91;76.05
50636;BME280;36598;46.054;11.130;2022-12-01T07:55:53;99573.94;;;4.21;74.40
50636;BME280;36598;46.054;11.130;2022-12-01T07:58:18;99570.69;;;4.15;74.37
50636;BME280;36598;46.054;11.130;2022-12-01T08:00:43;99573.38;;;4.54;72.94
50636;BME280;36598;46.054;11.130;2022-12-01T08:03:09;99569.88;;;4.57;73.24
50636;BME280;36598;46.054;11.130;2022-12-01T08:05:34;99570.13;;;4.48;73.24
50636;BME280;36598;46.054;11.130;2022-12-01T08:08:00;99576.59;;;5.09;70.83
50636;BME280;36598;46.054;11.130;2022-12-01T08:10:25;99570.50;;;5.19;70.93
50636;BME280;36598;46.054;11.130;2022-12-01T08:12:50;99583.44;;;5.19;70.49
50636;BME280;36598;46.054;11.130;2022-12-01T08:15:16;99582.72;;;5.25;70.03
50636;BME280;36598;46.054;11.130;2022-12-01T08:17:41;99588.16;;;5.22;70.44
50636;BME280;36598;46.054;11.130;2022-12-01T08:20:07;99591.06;;;5.06;71.17
50636;BME280;36598;46.054;11.130;2022-12-01T08:22:32;99585.16;;;5.04;70.82
50636;BME280;36598;46.054;11.130;2022-12-01T08:24:57;99580.75;;;5.22;70.34
50636;BME280;36598;46.054;11.130;2022-12-01T08:27:23;99591.59;;;4.89;71.17
50636;BME280;36598;46.054;11.130;2022-12-01T08:29:48;99585.78;;;4.94;71.68
50636;BME280;36598;46.054;11.130;2022-12-01T08:32:15;99581.59;;;4.77;72.08
50636;BME280;36598;46.054;11.130;2022-12-01T08:34:40;99577.09;;;4.88;71.36
50636;BME280;36598;46.054;11.130;2022-12-01T08:37:06;99585.59;;;4.83;71.71
50636;BME280;36598;46.054;11.130;2022-12-01T08:39:31;99587.22;;;4.88;71.70
50636;BME280;36598;46.054;11.130;2022-12-01T08:41:56;99588.84;;;4.89;71.87
50636;BME280;36598;46.054;11.130;2022-12-01T08:44:22;99587.81;;;4.97;71.37
50636;BME280;36598;46.054;11.130;2022-12-01T08:46:47;99600.22;;;4.91;71.55
50636;BME280;36598;46.054;11.130;2022-12-01T08:49:12;99588.16;;;4.72;71.85
50636;BME280;36598;46.054;11.130;2022-12-01T08:51:38;99591.69;;;4.96;71.52
50636;BME280;36598;46.054;11.130;2022-12-01T08:54:03;99595.47;;;4.42;73.09
50636;BME280;36598;46.054;11.130;2022-12-01T08:58:54;99584.47;;;4.84;71.17
50636;BME280;36598;46.054;11.130;2022-12-01T09:01:19;99590.22;;;5.02;71.21
50636;BME280;36598;46.054;11.130;2022-12-01T09:03:45;99584.75;;;5.02;71.17
50636;BME280;36598;46.054;11.130;2022-12-01T09:06:11;99590.22;;;5.02;70.04
50636;BME280;36598;46.054;11.130;2022-12-01T09:08:37;99591.34;;;5.01;69.80
50636;BME280;36598;46.054;11.130;2022-12-01T09:11:04;99592.25;;;5.32;69.68
50636;BME280;36598;46.054;11.130;2022-12-01T09:13:31;99587.25;;;5.67;68.33
50636;BME280;36598;46.054;11.130;2022-12-01T09:15:57;99589.31;;;6.04;67.52
50636;BME280;36598;46.054;11.130;2022-12-01T09:18:23;99596.50;;;6.16;67.12
50636;BME280;36598;46.054;11.130;2022-12-01T09:20:48;99597.16;;;6.06;66.90
50636;BME280;36598;46.054;11.130;2022-12-01T09:23:13;99591.38;;;6.14;66.56
50636;BME280;36598;46.054;11.130;2022-12-01T09:25:39;99594.22;;;6.25;66.26
50636;BME280;36598;46.054;11.130;2022-12-01T09:28:04;99586.72;;;6.59;65.52
50636;BME280;36598;46.054;11.130;2022-12-01T09:30:29;99582.13;;;6.70;65.41
50636;BME280;36598;46.054;11.130;2022-12-01T09:32:55;99582.41;;;7.02;63.87
50636;BME280;36598;46.054;11.130;2022-12-01T09:35:20;99585.94;;;7.65;61.66
50636;BME280;36598;46.054;11.130;2022-12-01T09:37:45;99578.44;;;8.74;58.67
50636;BME280;36598;46.054;11.130;2022-12-01T09:40:12;99577.03;;;9.97;53.95
50636;BME280;36598;46.054;11.130;2022-12-01T09:42:38;99570.22;;;11.68;49.83
50636;BME280;36598;46.054;11.130;2022-12-01T09:45:05;99564.38;;;12.54;46.95
50636;BME280;36598;46.054;11.130;2022-12-01T09:47:33;99558.34;;;14.53;42.97
50636;BME280;36598;46.054;11.130;2022-12-01T09:50:00;99548.69;;;17.82;36.93
50636;BME280;36598;46.054;11.130;2022-12-01T09:52:28;99538.53;;;23.05;27.72
50636;BME280;36598;46.054;11.130;2022-12-01T09:54:57;99544.50;;;22.13;27.58
50636;BME280;36598;46.054;11.130;2022-12-01T09:57:34;99537.59;;;23.75;25.35
50636;BME280;36598;46.054;11.130;2022-12-01T10:00:03;99529.69;;;28.47;20.30
50636;BME280;36598;46.054;11.130;2022-12-01T10:04:55;99525.44;;;25.33;22.38
50636;BME280;36598;46.054;11.130;2022-12-01T10:09:57;99517.41;;;27.97;19.80
50636;BME280;36598;46.054;11.130;2022-12-01T10:12:24;99519.69;;;26.20;21.25
50636;BME280;36598;46.054;11.130;2022-12-01T10:14:52;99509.16;;;24.79;22.54
50636;BME280;36598;46.054;11.130;2022-12-01T10:32:25;99480.81;;;25.16;22.51
50636;BME280;36598;46.054;11.130;2022-12-01T10:34:54;99468.22;;;27.08;20.08
50636;BME280;36598;46.054;11.130;2022-12-01T10:37:24;99473.91;;;25.29;21.41
50636;BME280;36598;46.054;11.130;2022-12-01T10:39:51;99466.69;;;24.05;22.62
50636;BME280;36598;46.054;11.130;2022-12-01T10:44:42;99477.81;;;20.21;27.78
50636;BME280;36598;46.054;11.130;2022-12-01T10:47:19;99473.50;;;18.73;30.32
50636;BME280;36598;46.054;11.130;2022-12-01T10:49:44;99471.72;;;18.58;30.75
50636;BME280;36598;46.054;11.130;2022-12-01T10:54:53;99457.88;;;22.63;25.51
50636;BME280;36598;46.054;11.130;2022-12-01T10:57:18;99443.84;;;25.65;21.71
50636;BME280;36598;46.054;11.130;2022-12-01T11:02:19;99448.59;;;22.78;24.73
50636;BME280;36598;46.054;11.130;2022-12-01T11:04:50;99441.84;;;23.10;24.73
50636;BME280;36598;46.054;11.130;2022-12-01T11:07:18;99443.31;;;24.79;22.77
50636;BME280;36598;46.054;11.130;2022-12-01T11:09:45;99439.28;;;26.18;21.46
50636;BME280;36598;46.054;11.130;2022-12-01T11:12:12;99428.78;;;26.93;20.53
50636;BME280;36598;46.054;11.130;2022-12-01T11:19:50;99427.53;;;27.83;19.04
50636;BME280;36598;46.054;11.130;2022-12-01T11:22:20;99413.84;;;29.09;18.04
50636;BME280;36598;46.054;11.130;2022-12-01T11:27:18;99411.59;;;26.63;20.45
50636;BME280;36598;46.054;11.130;2022-12-01T11:29:45;99409.88;;;27.07;19.70
50636;BME280;36598;46.054;11.130;2022-12-01T11:37:20;99401.44;;;24.99;21.64
50636;BME280;36598;46.054;11.130;2022-12-01T11:39:46;99404.00;;;19.60;27.97
50636;BME280;36598;46.054;11.130;2022-12-01T11:44:37;99398.66;;;19.81;29.00
50636;BME280;36598;46.054;11.130;2022-12-01T11:47:10;99399.84;;;20.64;27.99
50636;BME280;36598;46.054;11.130;2022-12-01T11:49:36;99397.28;;;20.18;28.41
50636;BME280;36598;46.054;11.130;2022-12-01T11:52:15;99394.88;;;19.32;29.78
50636;BME280;36598;46.054;11.130;2022-12-01T11:54:46;99389.88;;;19.18;31.75
50636;BME280;36598;46.054;11.130;2022-12-01T11:57:18;99385.03;;;18.63;30.69
50636;BME280;36598;46.054;11.130;2022-12-01T11:59:43;99379.38;;;17.64;32.21
50636;BME280;36598;46.054;11.130;2022-12-01T12:02:14;99385.41;;;16.53;34.10
50636;BME280;36598;46.054;11.130;2022-12-01T12:14:54;99375.41;;;15.79;36.09
50636;BME280;36598;46.054;11.130;2022-12-01T12:17:34;99378.53;;;15.68;36.44
50636;BME280;36598;46.054;11.130;2022-12-01T12:20:23;99377.81;;;15.39;36.71
50636;BME280;36598;46.054;11.130;2022-12-01T12:22:58;99363.28;;;15.31;37.17
50636;BME280;36598;46.054;11.130;2022-12-01T12:25:35;99356.09;;;14.75;38.16
50636;BME280;36598;46.054;11.130;2022-12-01T12:28:23;99365.59;;;14.45;38.93
50636;BME280;36598;46.054;11.130;2022-12-01T12:33:27;99364.41;;;14.14;39.64
50636;BME280;36598;46.054;11.130;2022-12-01T12:43:52;99351.53;;;13.71;40.73
50636;BME280;36598;46.054;11.130;2022-12-01T12:46:24;99346.44;;;13.49;40.75
50636;BME280;36598;46.054;11.130;2022-12-01T12:53:53;99342.84;;;13.33;41.62
50636;BME280;36598;46.054;11.130;2022-12-01T12:56:22;99340.03;;;12.93;41.96
50636;BME280;36598;46.054;11.130;2022-12-01T12:58:54;99336.19;;;12.87;42.85
50636;BME280;36598;46.054;11.130;2022-12-01T13:01:22;99334.88;;;12.51;43.03
50636;BME280;36598;46.054;11.130;2022-12-01T13:03:49;99337.53;;;12.12;44.06
50636;BME280;36598;46.054;11.130;2022-12-01T13:06:18;99325.84;;;12.24;43.59
50636;BME280;36598;46.054;11.130;2022-12-01T13:08:47;99320.78;;;12.42;44.12
50636;BME280;36598;46.054;11.130;2022-12-01T13:11:17;99328.16;;;12.72;43.54
50636;BME280;36598;46.054;11.130;2022-12-01T13:13:53;99326.75;;;12.41;44.30
50636;BME280;36598;46.054;11.130;2022-12-01T13:16:21;99324.22;;;12.26;43.98
50636;BME280;36598;46.054;11.130;2022-12-01T13:18:51;99326.94;;;12.30;44.60
50636;BME280;36598;46.054;11.130;2022-12-01T13:21:19;99315.47;;;12.51;43.50
50636;BME280;36598;46.054;11.130;2022-12-01T13:23:44;99319.47;;;12.27;44.73
50636;BME280;36598;46.054;11.130;2022-12-01T13:26:10;99315.25;;;11.95;45.35
50636;BME280;36598;46.054;11.130;2022-12-01T13:28:39;99310.88;;;11.94;45.26
50636;BME280;36598;46.054;11.130;2022-12-01T13:31:07;99306.75;;;11.79;46.09
50636;BME280;36598;46.054;11.130;2022-12-01T13:33:32;99316.81;;;11.42;46.29
50636;BME280;36598;46.054;11.130;2022-12-01T13:35:58;99312.03;;;11.16;46.90
50636;BME280;36598;46.054;11.130;2022-12-01T13:41:12;99299.47;;;11.65;45.86
50636;BME280;36598;46.054;11.130;2022-12-01T13:43:55;99293.25;;;11.58;46.14
50636;BME280;36598;46.054;11.130;2022-12-01T13:46:26;99295.63;;;11.28;46.52
50636;BME280;36598;46.054;11.130;2022-12-01T13:48:53;99303.44;;;11.37;46.83
50636;BME280;36598;46.054;11.130;2022-12-01T13:51:19;99307.09;;;11.31;47.15
50636;BME280;36598;46.054;11.130;2022-12-01T13:53:55;99300.13;;;11.46;47.17
50636;BME280;36598;46.054;11.130;2022-12-01T13:57:04;99296.09;;;11.23;47.03
50636;BME280;36598;46.054;11.130;2022-12-01T14:02:13;99295.09;;;10.80;48.11
50636;BME280;36598;46.054;11.130;2022-12-01T14:04:38;99290.22;;;10.53;49.30
50636;BME280;36598;46.054;11.130;2022-12-01T14:07:20;99286.72;;;10.49;49.51
50636;BME280;36598;46.054;11.130;2022-12-01T14:09:47;99289.13;;;10.47;49.28
50636;BME280;36598;46.054;11.130;2022-12-01T14:12:15;99281.59;;;10.06;50.29
50636;BME280;36598;46.054;11.130;2022-12-01T14:14:43;99290.41;;;9.94;50.26
50636;BME280;36598;46.054;11.130;2022-12-01T14:17:25;99282.91;;;9.94;50.92
50636;BME280;36598;46.054;11.130;2022-12-01T14:19:51;99292.84;;;9.85;51.79
50636;BME280;36598;46.054;11.130;2022-12-01T14:25:01;99287.75;;;9.79;52.41
50636;BME280;36598;46.054;11.130;2022-12-01T14:27:40;99293.00;;;9.63;52.64
50636;BME280;36598;46.054;11.130;2022-12-01T14:32:50;99292.03;;;9.32;53.24
50636;BME280;36598;46.054;11.130;2022-12-01T14:35:15;99289.75;;;9.16;54.37
50636;BME280;36598;46.054;11.130;2022-12-01T14:37:41;99290.50;;;9.20;54.76
50636;BME280;36598;46.054;11.130;2022-12-01T14:40:12;99295.72;;;9.08;54.89
50636;BME280;36598;46.054;11.130;2022-12-01T14:42:41;99289.47;;;9.00;55.73
50636;BME280;36598;46.054;11.130;2022-12-01T14:46:11;99295.44;;;8.81;56.73
50636;BME280;36598;46.054;11.130;2022-12-01T14:48:13;99293.88;;;8.76;56.31
50636;BME280;36598;46.054;11.130;2022-12-01T14:50:41;99287.28;;;8.48;57.45
50636;BME280;36598;46.054;11.130;2022-12-01T14:53:21;99290.00;;;8.56;57.96
50636;BME280;36598;46.054;11.130;2022-12-01T14:56:07;99287.22;;;8.66;57.79
50636;BME280;36598;46.054;11.130;2022-12-01T14:58:34;99297.50;;;8.62;58.63
50636;BME280;36598;46.054;11.130;2022-12-01T15:01:05;99288.47;;;8.29;59.80
50636;BME280;36598;46.054;11.130;2022-12-01T15:03:32;99289.28;;;8.26;60.05
50636;BME280;36598;46.054;11.130;2022-12-01T15:05:59;99300.31;;;8.26;59.58
50636;BME280;36598;46.054;11.130;2022-12-01T15:08:25;99306.59;;;8.09;60.57
50636;BME280;36598;46.054;11.130;2022-12-01T15:10:56;99301.53;;;7.97;61.28
50636;BME280;36598;46.054;11.130;2022-12-01T15:15:56;99308.97;;;8.00;61.60
50636;BME280;36598;46.054;11.130;2022-12-01T15:18:29;99303.09;;;7.76;62.59
50636;BME280;36598;46.054;11.130;2022-12-01T15:23:54;99320.72;;;7.25;63.95
50636;BME280;36598;46.054;11.130;2022-12-01T15:26:25;99309.72;;;7.29;64.09
50636;BME280;36598;46.054;11.130;2022-12-01T15:29:02;99316.81;;;7.48;63.35
50636;BME280;36598;46.054;11.130;2022-12-01T15:31:28;99313.66;;;7.32;64.71
50636;BME280;36598;46.054;11.130;2022-12-01T15:33:53;99316.75;;;7.12;65.67
50636;BME280;36598;46.054;11.130;2022-12-01T15:36:19;99316.78;;;7.23;64.83
50636;BME280;36598;46.054;11.130;2022-12-01T15:38:45;99324.59;;;7.03;65.88
50636;BME280;36598;46.054;11.130;2022-12-01T15:41:18;99322.25;;;7.12;65.47
50636;BME280;36598;46.054;11.130;2022-12-01T15:43:57;99322.25;;;7.12;65.71
50636;BME280;36598;46.054;11.130;2022-12-01T15:46:27;99312.81;;;7.13;65.43
50636;BME280;36598;46.054;11.130;2022-12-01T15:49:06;99313.59;;;7.14;65.42
50636;BME280;36598;46.054;11.130;2022-12-01T15:51:31;99324.50;;;6.89;66.65
50636;BME280;36598;46.054;11.130;2022-12-01T15:53:58;99320.63;;;6.90;66.45
50636;BME280;36598;46.054;11.130;2022-12-01T15:56:44;99326.13;;;6.97;66.09
50636;BME280;36598;46.054;11.130;2022-12-01T16:01:37;99330.06;;;6.96;66.45
50636;BME280;36598;46.054;11.130;2022-12-01T16:04:25;99327.69;;;6.91;66.65
50636;BME280;36598;46.054;11.130;2022-12-01T16:09:19;99328.66;;;6.50;67.71
50636;BME280;36598;46.054;11.130;2022-12-01T16:14:29;99322.38;;;6.53;68.43
50636;BME280;36598;46.054;11.130;2022-12-01T16:16:56;99325.03;;;6.36;68.84
50636;BME280;36598;46.054;11.130;2022-12-01T16:19:26;99323.91;;;6.44;68.67
50636;BME280;36598;46.054;11.130;2022-12-01T16:21:56;99317.66;;;6.47;68.23
50636;BME280;36598;46.054;11.130;2022-12-01T16:29:49;99330.66;;;6.57;67.36
50636;BME280;36598;46.054;11.130;2022-12-01T16:32:16;99325.47;;;6.45;67.79
50636;BME280;36598;46.054;11.130;2022-12-01T16:34:42;99333.06;;;6.07;68.53
50636;BME280;36598;46.054;11.130;2022-12-01T16:37:09;99330.03;;;6.19;68.36
50636;BME280;36598;46.054;11.130;2022-12-01T16:39:35;99328.44;;;6.18;68.71
50636;BME280;36598;46.054;11.130;2022-12-01T16:42:00;99340.94;;;6.12;67.51
50636;BME280;36598;46.054;11.130;2022-12-01T16:44:26;99336.75;;;6.25;67.48
50636;BME280;36598;46.054;11.130;2022-12-01T16:46:51;99342.25;;;6.25;67.54
50636;BME280;36598;46.054;11.130;2022-12-01T16:49:16;99352.47;;;6.32;67.05
50636;BME280;36598;46.054;11.130;2022-12-01T16:51:41;99356.78;;;6.26;67.21
50636;BME280;36598;46.054;11.130;2022-12-01T16:54:07;99357.19;;;5.84;68.02
50636;BME280;36598;46.054;11.130;2022-12-01T16:56:33;99356.28;;;5.72;69.08
50636;BME280;36598;46.054;11.130;2022-12-01T16:58:58;99350.66;;;5.99;68.17
50636;BME280;36598;46.054;11.130;2022-12-01T17:01:25;99351.63;;;5.76;68.88
50636;BME280;36598;46.054;11.130;2022-12-01T17:03:51;99359.25;;;5.53;70.05
50636;BME280;36598;46.054;11.130;2022-12-01T17:06:17;99359.38;;;5.67;69.43
50636;BME280;36598;46.054;11.130;2022-12-01T17:08:42;99357.94;;;5.81;68.98
50636;BME280;36598;46.054;11.130;2022-12-01T17:11:08;99365.22;;;5.62;70.00
50636;BME280;36598;46.054;11.130;2022-12-01T17:13:33;99366.06;;;5.66;69.68
50636;BME280;36598;46.054;11.130;2022-12-01T17:16:02;99360.28;;;5.82;69.02
50636;BME280;36598;46.054;11.130;2022-12-01T17:18:27;99368.00;;;6.07;68.51
50636;BME280;36598;46.054;11.130;2022-12-01T17:20:59;99374.63;;;6.02;68.62
50636;BME280;36598;46.054;11.130;2022-12-01T17:23:25;99373.88;;;6.05;68.73
50636;BME280;36598;46.054;11.130;2022-12-01T17:25:51;99380.34;;;5.83;68.72
50636;BME280;36598;46.054;11.130;2022-12-01T17:28:16;99374.56;;;5.95;69.37
50636;BME280;36598;46.054;11.130;2022-12-01T17:30:41;99371.88;;;6.02;68.54
50636;BME280;36598;46.054;11.130;2022-12-01T17:33:07;99372.75;;;5.35;70.65
50636;BME280;36598;46.054;11.130;2022-12-01T17:35:32;99376.97;;;5.25;70.71
50636;BME280;36598;46.054;11.130;2022-12-01T17:37:57;99380.75;;;4.80;73.03
50636;BME280;36598;46.054;11.130;2022-12-01T17:40:23;99381.91;;;5.13;72.21
50636;BME280;36598;46.054;11.130;2022-12-01T17:42:48;99388.00;;;5.29;72.66
50636;BME280;36598;46.054;11.130;2022-12-01T17:45:14;99373.94;;;5.34;72.67
50636;BME280;36598;46.054;11.130;2022-12-01T17:47:40;99390.31;;;5.64;70.82
50636;BME280;36598;46.054;11.130;2022-12-01T17:50:05;99382.03;;;5.57;71.52
50636;BME280;36598;46.054;11.130;2022-12-01T17:52:31;99386.75;;;5.60;70.52
50636;BME280;36598;46.054;11.130;2022-12-01T17:54:56;99385.19;;;5.59;70.09
50636;BME280;36598;46.054;11.130;2022-12-01T17:57:22;99384.13;;;5.71;70.17
50636;BME280;36598;46.054;11.130;2022-12-01T17:59:47;99375.66;;;5.87;69.60
50636;BME280;36598;46.054;11.130;2022-12-01T18:02:12;99378.47;;;5.94;69.73
50636;BME280;36598;46.054;11.130;2022-12-01T18:04:38;99377.63;;;5.90;69.61
50636;BME280;36598;46.054;11.130;2022-12-01T18:07:03;99380.44;;;5.93;69.46
50636;BME280;36598;46.054;11.130;2022-12-01T18:09:28;99383.72;;;5.69;71.01
50636;BME280;36598;46.054;11.130;2022-12-01T18:11:54;99384.13;;;5.71;70.36
50636;BME280;36598;46.054;11.130;2022-12-01T18:14:23;99381.22;;;5.94;70.30
50636;BME280;36598;46.054;11.130;2022-12-01T18:16:49;99388.22;;;5.88;70.02
50636;BME280;36598;46.054;11.130;2022-12-01T18:19:14;99382.75;;;5.91;70.51
50636;BME280;36598;46.054;11.130;2022-12-01T18:21:40;99394.50;;;5.88;70.13
50636;BME280;36598;46.054;11.130;2022-12-01T18:24:05;99403.03;;;5.80;70.81
50636;BME280;36598;46.054;11.130;2022-12-01T18:26:33;99403.91;;;5.87;70.01
50636;BME280;36598;46.054;11.130;2022-12-01T18:29:00;99399.94;;;5.85;70.44
50636;BME280;36598;46.054;11.130;2022-12-01T18:31:27;99397.59;;;5.83;70.33
50636;BME280;36598;46.054;11.130;2022-12-01T18:33:52;99409.91;;;5.96;70.16
50636;BME280;36598;46.054;11.130;2022-12-01T18:36:22;99410.25;;;5.95;69.73
50636;BME280;36598;46.054;11.130;2022-12-01T18:38:48;99416.56;;;5.95;70.31
50636;BME280;36598;46.054;11.130;2022-12-01T18:41:14;99414.16;;;5.53;71.34
50636;BME280;36598;46.054;11.130;2022-12-01T18:43:40;99414.88;;;5.50;71.66
50636;BME280;36598;46.054;11.130;2022-12-01T18:46:05;99414.56;;;4.91;75.06
50636;BME280;36598;46.054;11.130;2022-12-01T18:48:31;99417.34;;;5.25;74.44
50636;BME280;36598;46.054;11.130;2022-12-01T18:51:03;99417.81;;;5.00;74.82
50636;BME280;36598;46.054;11.130;2022-12-01T18:53:29;99413.25;;;5.12;73.89
50636;BME280;36598;46.054;11.130;2022-12-01T18:55:54;99423.81;;;5.40;73.57
50636;BME280;36598;46.054;11.130;2022-12-01T18:58:20;99414.47;;;5.48;73.26
50636;BME280;36598;46.054;11.130;2022-12-01T19:00:45;99409.19;;;5.69;72.63
50636;BME280;36598;46.054;11.130;2022-12-01T19:03:11;99411.75;;;5.51;73.46
50636;BME280;36598;46.054;11.130;2022-12-01T19:05:37;99417.28;;;5.55;72.90
50636;BME280;36598;46.054;11.130;2022-12-01T19:08:02;99420.69;;;5.78;72.04
50636;BME280;36598;46.054;11.130;2022-12-01T19:10:28;99422.84;;;5.96;71.78
50636;BME280;36598;46.054;11.130;2022-12-01T19:12:53;99426.09;;;6.09;71.59
50636;BME280;36598;46.054;11.130;2022-12-01T19:15:18;99423.25;;;5.98;71.94
50636;BME280;36598;46.054;11.130;2022-12-01T19:17:44;99430.66;;;5.94;72.38
50636;BME280;36598;46.054;11.130;2022-12-01T19:20:09;99430.66;;;5.94;71.82
50636;BME280;36598;46.054;11.130;2022-12-01T19:22:34;99422.41;;;5.94;72.09
50636;BME280;36598;46.054;11.130;2022-12-01T19:25:00;99428.13;;;6.15;71.31
50636;BME280;36598;46.054;11.130;2022-12-01T19:27:27;99428.22;;;6.26;71.00
50636;BME280;36598;46.054;11.130;2022-12-01T19:29:55;99423.50;;;6.26;71.00
50636;BME280;36598;46.054;11.130;2022-12-01T19:32:21;99426.63;;;6.25;71.12
50636;BME280;36598;46.054;11.130;2022-12-01T19:34:46;99431.78;;;6.34;70.77
50636;BME280;36598;46.054;11.130;2022-12-01T19:37:11;99429.75;;;6.23;70.86
50636;BME280;36598;46.054;11.130;2022-12-01T19:39:37;99425.06;;;6.27;70.94
50636;BME280;36598;46.054;11.130;2022-12-01T19:42:03;99435.78;;;6.40;70.59